»·PEaware :: N737AZ L88-KSBP

N737AZ :: L88-KSBP

FLIGHT INFORMATION

Flight Status: Arrived
Operator: Privately registered:
United States
More flights under this callsign
Pilot: Ronald A. (20436)
Aircraft: CESSNA 172 SKYHAWK
(C172)
More flights by this aircraft type
Origin: L88 New Cuyama
United States
Destination: KSBP San Luis Co Regl
United States
More flights between these airports :: More routes between these airports
Route: +DIRECT
File this flight plan on PilotEdge
Remarks:
Altitude:
(Current/Filed)
6,500ft
Speed:
(Current/Filed)
100kts
Departed: 07-Oct-18 04:52 PM
Arrived: 07-Oct-18 05:29 PM
Distance/Time
Traveled:
50nm/0:37
Distance/Time
To Go:
Arrived

Flight Plot

Page will automatically refresh every two minutes.


Map Options




Map Legend


Flown Route
Filed Route
Departure Airport
Arrival Airport
Navaid (VOR, NDB)
Fix

Horizontal Profiles

Position Reports

Time Latitude Longitude Heading Altitude Ground
Speed
07-Oct-18 16:48 34.942855 -119.690286 204 2207ft 0kts
07-Oct-18 16:49 34.942776 -119.690678 278 2207ft 4kts
07-Oct-18 16:50 34.941342 -119.688957 117 2207ft 15kts
07-Oct-18 16:51 34.939130 -119.683434 117 2207ft 20kts
07-Oct-18 16:52 34.937644 -119.679902 285 2207ft 0kts
07-Oct-18 16:53 34.937857 -119.680575 291 2207ft 30kts
07-Oct-18 16:54 34.948689 -119.699403 299 2927ft 73kts
07-Oct-18 16:55 34.958709 -119.720269 295 3833ft 71kts
07-Oct-18 16:56 34.967895 -119.741331 295 4716ft 70kts
07-Oct-18 16:57 34.975149 -119.763133 288 5554ft 70kts
07-Oct-18 16:58 34.981329 -119.785593 289 6356ft 70kts
07-Oct-18 16:59 34.987071 -119.810424 289 6579ft 83kts
07-Oct-18 17:00 34.993379 -119.839614 289 6570ft 95kts
07-Oct-18 17:01 35.000934 -119.871321 291 6477ft 97kts
07-Oct-18 17:02 35.008645 -119.902875 288 6432ft 96kts
07-Oct-18 17:03 35.015974 -119.933052 287 6422ft 86kts
07-Oct-18 17:04 35.021137 -119.960989 285 6507ft 81kts
07-Oct-18 17:05 35.026272 -119.989136 288 6485ft 84kts
07-Oct-18 17:06 35.033306 -120.016408 293 6501ft 84kts
07-Oct-18 17:07 35.040952 -120.043354 291 6518ft 84kts
07-Oct-18 17:08 35.049275 -120.069886 296 6537ft 83kts
07-Oct-18 17:09 35.058570 -120.095789 294 6556ft 83kts
07-Oct-18 17:10 35.067453 -120.122090 296 6562ft 83kts
07-Oct-18 17:11 35.077559 -120.147617 298 6574ft 83kts
07-Oct-18 17:12 35.085026 -120.169311 293 6576ft 84kts
07-Oct-18 17:13 35.093159 -120.201034 293 6564ft 84kts
07-Oct-18 17:14 35.099871 -120.228267 292 6555ft 83kts
07-Oct-18 17:15 35.106021 -120.250424 292 6566ft 83kts
07-Oct-18 17:16 35.113395 -120.282469 290 6578ft 84kts
07-Oct-18 17:17 35.118704 -120.305211 292 6530ft 82kts
07-Oct-18 17:18 35.126866 -120.336855 296 6166ft 82kts
07-Oct-18 17:19 35.133394 -120.358761 295 5857ft 82kts
07-Oct-18 17:20 35.142020 -120.389570 294 5372ft 81kts
07-Oct-18 17:21 35.148543 -120.411163 295 4997ft 80kts
07-Oct-18 17:22 35.156027 -120.436954 294 4558ft 80kts
07-Oct-18 17:23 35.162329 -120.463153 290 4134ft 80kts
07-Oct-18 17:24 35.167454 -120.489733 298 3714ft 79kts
07-Oct-18 17:25 35.176538 -120.514161 300 3239ft 81kts
07-Oct-18 17:26 35.185632 -120.539683 300 2545ft 81kts
07-Oct-18 17:27 35.193660 -120.565167 304 1929ft 79kts
07-Oct-18 17:28 35.206204 -120.586597 309 1437ft 77kts
07-Oct-18 17:29 35.217987 -120.607233 304 928ft 64kts
07-Oct-18 17:30 35.227645 -120.624072 302 443ft 60kts
07-Oct-18 17:31 35.235165 -120.637255 309 215ft 26kts
07-Oct-18 17:32 35.237549 -120.639914 4 215ft 0kts
07-Oct-18 17:33 35.237550 -120.639914 4 215ft 0kts
07-Oct-18 17:34 35.238132 -120.640077 46 215ft 1kts
07-Oct-18 17:35 35.238412 -120.640003 310 215ft 0kts
07-Oct-18 17:36 35.238412 -120.640003 310 215ft 0kts
07-Oct-18 17:37 35.238412 -120.640003 310 215ft 0kts
07-Oct-18 17:38 35.238412 -120.640003 310 215ft 0kts

Navigation Log

Ident Type
Flight plan parsing failed, navigation log unavailable